Lincoln Acres, CA (91947)

3:17 PM PST on January 28, 2015 (GMT -0800)
Chula Vista | Change Station
CLOSE
Current Station
Personal Weather Station
Location: Chula Vista, CA
Elevation: 50 ft
Nearby Weather Stations

Elev 50 ft 32.65 °N, 117.07 °W | Updated 2 minutes ago

Mostly Cloudy
Mostly Cloudy
71.3 °F
Feels Like 77 °F
N
0.0
Wind Variable Wind from WSW
Gusts 2.0 mph

Today
High -- | Low -- °F
--% Chance of Precip.
Yesterday
High -- | Low -- °F
Precip. -- in
6:45 AM 5:17 PM
Waxing Gibbous, 68% visible
Pressure 30.07 in
Visibility 10.0 miles
Clouds Few 15000 ft
Overcast 25000 ft
Heat Index 77 °F
Dew Point 52 °F
Humidity 51%
Rainfall 0.00 in
Snow Depth Not available.
UV 1 out of 12
Pollen 6.80 out of 12
Air Quality Not available.
Flu Activity Not available.
METAR KNRS 282256Z 24006KT 10SM FEW150 OVC250 18/13 A3007 RMK AO2 SLP181 T01830133 $

More Conditions Fewer Conditions

Pressure 30.07 in
Visibility 10.0 miles
Clouds Few 15000 ft
Overcast 25000 ft
Heat Index 77 °F
Dew Point 52 °F
Humidity 51%
Rainfall 0.00 in
Snow Depth Not available.
UV 1 out of 12
Pollen 6.80 out of 12
Air Quality Not available.
Flu Activity Not available.
METAR KNRS 282256Z 24006KT 10SM FEW150 OVC250 18/13 A3007 RMK AO2 SLP181 T01830133 $

More Conditions Fewer Conditions

10-Day Weather Forecast

Almanac

Astronomy

Jan. 28, 2015 Rise Set
Actual Time
Civil Twilight
Nautical Twilight
Astronomical Twilight
Moon
Length of Visible Light
Length of Day
Tomorrow will be .
, % of the Moon is Illuminated

Today's Extremes

State Highs State Lows

Community

WunderPhotos

Upload Photos

1,791,292 photos uploaded!

WunderBlogs® & News

Nearby

Air Quality

  Air Quality AQ Index Pollutant
Not available.

Snow Depth

Station Depth Elevation

Earthquake Activity

City Distance Mag. Time & Date
Minimum magnitude displayed is 2.5.

Coastal Water Temperatures

Place Temperature

Nearby Weather Stations